createdAt,value
2024-05-09T00:02:16.297Z,99335.34
2024-05-09T00:05:02.125Z,99330.91
2024-05-09T00:07:48.012Z,99331.75
2024-05-09T00:10:37.423Z,99332.03
2024-05-09T00:13:24.895Z,99324.91
2024-05-09T00:16:10.535Z,99324.34
2024-05-09T00:18:56.764Z,99325.41
2024-05-09T00:21:43.548Z,99325.41
2024-05-09T00:24:29.628Z,99305.50
2024-05-09T00:27:16.132Z,99327.19
2024-05-09T00:30:02.860Z,99326.03
2024-05-09T00:32:49.788Z,99324.91
2024-05-09T00:35:35.715Z,99312.81
2024-05-09T00:38:21.838Z,99326.13
2024-05-09T00:41:07.650Z,99321.00
2024-05-09T00:43:53.689Z,99323.66
2024-05-09T00:46:39.359Z,99323.50
2024-05-09T00:49:26.823Z,99272.56
2024-05-09T00:52:12.768Z,99320.88
2024-05-09T00:54:58.625Z,99323.81
2024-05-09T00:57:45.232Z,99329.22
2024-05-09T01:00:38.127Z,99326.75
2024-05-09T01:03:27.183Z,99321.63
2024-05-09T01:06:14.045Z,99320.28
2024-05-09T01:09:35.680Z,99325.19
2024-05-09T01:12:21.607Z,99327.81
2024-05-09T01:15:07.234Z,99328.47
2024-05-09T01:17:53.236Z,99328.63
2024-05-09T01:20:42.503Z,99329.75
2024-05-09T01:23:30.554Z,99328.16
2024-05-09T01:26:17.533Z,99330.25
2024-05-09T01:29:03.229Z,99323.81
2024-05-09T01:31:49.045Z,99325.25
2024-05-09T01:34:34.821Z,99333.72
2024-05-09T01:37:20.492Z,99328.09
2024-05-09T01:40:12.184Z,99330.19
2024-05-09T01:43:01.115Z,99328.53
2024-05-09T01:45:46.979Z,99326.88
2024-05-09T01:48:32.830Z,99328.53
2024-05-09T01:51:18.669Z,99330.63
2024-05-09T01:54:04.558Z,99332.28
2024-05-09T01:56:50.093Z,99320.78
2024-05-09T01:59:35.527Z,99321.22
2024-05-09T02:02:22.095Z,99325.22
2024-05-09T02:05:08.124Z,99320.03
2024-05-09T02:07:54.028Z,99329.66
2024-05-09T02:10:40.268Z,99329.66
2024-05-09T02:13:26.095Z,99331.63
2024-05-09T02:16:11.706Z,99323.31
2024-05-09T02:18:59.294Z,99317.16
2024-05-09T02:21:45.475Z,99317.84
2024-05-09T02:24:31.350Z,99317.31
2024-05-09T02:27:16.754Z,99303.25
2024-05-09T02:30:02.183Z,99317.59
2024-05-09T02:32:49.286Z,99325.63
2024-05-09T02:35:35.366Z,99315.94
2024-05-09T02:38:21.189Z,99319.41
2024-05-09T02:41:06.658Z,99320.53
2024-05-09T02:43:52.413Z,99316.09
2024-05-09T02:46:38.628Z,99315.41
2024-05-09T02:49:24.613Z,99301.06
2024-05-09T02:52:10.312Z,99323.16
2024-05-09T02:54:56.223Z,99315.41
2024-05-09T02:57:42.958Z,99318.31
2024-05-09T03:00:36.891Z,99322.09
2024-05-09T03:03:26.142Z,99311.47
2024-05-09T03:06:12.170Z,99313.50
2024-05-09T03:08:57.898Z,99314.50
2024-05-09T03:11:43.433Z,99320.41
2024-05-09T03:14:29.225Z,99313.78
2024-05-09T03:17:15.914Z,99321.00
2024-05-09T03:20:01.324Z,99314.38
2024-05-09T03:22:47.640Z,99320.59
2024-05-09T03:25:33.813Z,99318.97
2024-05-09T03:28:19.819Z,99317.44
2024-05-09T03:31:06.765Z,99316.91
2024-05-09T03:33:52.987Z,99309.03
2024-05-09T03:36:42.462Z,99312.69
2024-05-09T03:39:28.326Z,99309.47
2024-05-09T03:42:13.702Z,99315.38
2024-05-09T03:44:59.946Z,99309.00
2024-05-09T03:47:45.706Z,99312.03
2024-05-09T03:50:35.507Z,99312.88
2024-05-09T03:53:22.005Z,99305.69
2024-05-09T03:56:09.808Z,99320.19
2024-05-09T03:58:57.569Z,99313.13
2024-05-09T04:01:43.441Z,99316.00
2024-05-09T04:04:29.219Z,99315.16
2024-05-09T04:07:15.093Z,99310.41
2024-05-09T04:10:00.722Z,99316.81
2024-05-09T04:12:46.651Z,99316.88
2024-05-09T04:15:32.489Z,99322.16
2024-05-09T04:18:18.631Z,99321.38
2024-05-09T04:21:05.426Z,99329.72
2024-05-09T04:23:51.238Z,99331.34
2024-05-09T04:26:37.288Z,99337.66
2024-05-09T04:29:23.417Z,99333.25
2024-05-09T04:32:09.216Z,99334.03
2024-05-09T04:34:55.039Z,99330.13
2024-05-09T04:37:40.780Z,99329.09
2024-05-09T04:40:33.095Z,99332.19
2024-05-09T04:43:21.779Z,99298.63
2024-05-09T04:46:07.963Z,99340.44
2024-05-09T04:48:53.904Z,99337.56
2024-05-09T04:51:39.452Z,99341.31
2024-05-09T04:54:33.730Z,99316.84
2024-05-09T04:57:22.074Z,99342.94
2024-05-09T05:00:14.568Z,99340.44
2024-05-09T05:03:06.672Z,99344.84
2024-05-09T05:05:53.679Z,99340.44
2024-05-09T05:08:39.321Z,99336.69
2024-05-09T05:11:25.858Z,99344.75
2024-05-09T05:14:11.738Z,99342.38
2024-05-09T05:16:58.096Z,99343.69
2024-05-09T05:19:43.807Z,99346.00
2024-05-09T05:22:29.321Z,99354.59
2024-05-09T05:25:14.997Z,99349.28
2024-05-09T05:28:00.540Z,99341.16
2024-05-09T05:30:46.599Z,99346.72
2024-05-09T05:33:32.520Z,99348.63
2024-05-09T05:36:18.579Z,99348.13
2024-05-09T05:39:03.926Z,99345.09
2024-05-09T05:41:49.687Z,99345.72
2024-05-09T05:44:35.342Z,99355.44
2024-05-09T05:47:21.363Z,99356.59
2024-05-09T05:50:20.679Z,99363.13
2024-05-09T05:53:13.741Z,99353.38
2024-05-09T05:55:59.266Z,99352.00
2024-05-09T05:58:45.002Z,99359.28
2024-05-09T06:01:30.518Z,99363.03
2024-05-09T06:04:16.658Z,99355.91
2024-05-09T06:07:02.237Z,99363.06
2024-05-09T06:09:49.955Z,99365.63
2024-05-09T06:12:36.900Z,99365.63
2024-05-09T06:15:22.666Z,99372.94
2024-05-09T06:18:10.190Z,99370.03
2024-05-09T06:20:57.118Z,99371.13
2024-05-09T06:23:47.144Z,99365.84
2024-05-09T06:26:33.551Z,99369.75
2024-05-09T06:29:19.378Z,99362.16
2024-05-09T06:32:05.687Z,99328.97
2024-05-09T06:34:51.327Z,99359.72
2024-05-09T06:37:37.089Z,99360.84
2024-05-09T06:40:29.138Z,99331.63
2024-05-09T06:43:20.215Z,99369.34
2024-05-09T06:46:05.660Z,99365.03
2024-05-09T06:48:51.527Z,99354.41
2024-05-09T06:51:38.323Z,99352.88
2024-05-09T06:54:24.187Z,99361.50
2024-05-09T06:57:10.659Z,99344.34
2024-05-09T06:59:56.642Z,99339.38
2024-05-09T07:02:42.642Z,99347.22
2024-05-09T07:05:28.428Z,99341.91
2024-05-09T07:08:14.797Z,99352.66
2024-05-09T07:11:01.918Z,99347.66
2024-05-09T07:13:48.087Z,99308.41
2024-05-09T07:16:33.910Z,99350.50
2024-05-09T07:19:19.721Z,99326.44
2024-05-09T07:22:05.880Z,99334.88
2024-05-09T07:24:54.429Z,99341.28
2024-05-09T07:27:39.988Z,99341.00
2024-05-09T07:30:32.852Z,99344.31
2024-05-09T07:33:22.607Z,99344.81
2024-05-09T07:36:10.044Z,99345.22
2024-05-09T07:38:55.579Z,99327.13
2024-05-09T07:41:41.328Z,99281.63
2024-05-09T07:44:27.222Z,99339.47
2024-05-09T07:48:28.041Z,99304.94
2024-05-09T07:53:36.679Z,99326.34
2024-05-09T07:56:14.970Z,99324.66
2024-05-09T07:59:01.764Z,99317.47
2024-05-09T08:01:47.571Z,99305.78
2024-05-09T08:04:33.385Z,99322.81
2024-05-09T08:07:19.168Z,99318.72
2024-05-09T08:10:08.036Z,99316.38
2024-05-09T08:12:54.124Z,99318.81
2024-05-09T08:15:40.438Z,99318.88
2024-05-09T08:18:26.771Z,99315.56
2024-05-09T08:21:12.477Z,99307.88
2024-05-09T08:23:58.611Z,99309.81
2024-05-09T08:26:44.932Z,99316.22
2024-05-09T08:29:30.741Z,99311.69
2024-05-09T08:32:16.343Z,99300.22
2024-05-09T08:35:02.409Z,99299.72
2024-05-09T08:37:49.126Z,99303.28
2024-05-09T08:40:36.860Z,99298.78
2024-05-09T08:43:26.785Z,99294.28
2024-05-09T08:46:12.439Z,99304.56
2024-05-09T08:48:59.747Z,99302.53
2024-05-09T08:51:45.782Z,99300.28
2024-05-09T08:54:31.687Z,99299.56
2024-05-09T08:57:18.338Z,99296.56
2024-05-09T09:00:12.511Z,99283.66
2024-05-09T09:03:02.856Z,99286.38
2024-05-09T09:05:59.030Z,99288.00
2024-05-09T09:08:46.253Z,99277.06
2024-05-09T09:11:31.719Z,99275.56
2024-05-09T09:14:17.553Z,99274.66
2024-05-09T09:17:12.834Z,99280.59
2024-05-09T09:20:00.222Z,99272.50
2024-05-09T09:22:46.477Z,99275.81
2024-05-09T09:25:32.330Z,99277.84
2024-05-09T09:28:18.004Z,99271.91
2024-05-09T09:31:04.273Z,99261.16
2024-05-09T09:33:50.223Z,99271.13
2024-05-09T09:36:39.191Z,99233.00
2024-05-09T09:39:28.078Z,99273.50
2024-05-09T09:42:17.380Z,99275.69
2024-05-09T09:45:05.874Z,99270.91
2024-05-09T09:47:55.812Z,99272.25
2024-05-09T09:50:42.081Z,99268.44
2024-05-09T09:53:31.851Z,99267.25
2024-05-09T09:56:18.571Z,99263.88
2024-05-09T09:59:04.730Z,99269.00
2024-05-09T10:01:50.636Z,99255.06
2024-05-09T10:04:36.933Z,99255.81
2024-05-09T10:07:23.499Z,99262.00
2024-05-09T10:10:13.913Z,99251.41
2024-05-09T10:13:06.125Z,99268.06
2024-05-09T10:15:54.112Z,99262.25
2024-05-09T10:18:40.736Z,99257.66
2024-05-09T10:21:27.243Z,99268.94
2024-05-09T10:24:13.109Z,99250.53
2024-05-09T10:27:04.412Z,99250.22
2024-05-09T10:29:57.374Z,99244.59
2024-05-09T10:32:45.148Z,99245.56
2024-05-09T10:35:32.159Z,99249.78
2024-05-09T10:38:18.415Z,99244.16
2024-05-09T10:41:05.376Z,99241.78
2024-05-09T10:43:52.135Z,99238.84
2024-05-09T10:46:38.559Z,99236.94
2024-05-09T10:49:24.359Z,99245.72
2024-05-09T10:52:10.178Z,99234.22
2024-05-09T10:54:56.205Z,99234.47
2024-05-09T10:57:41.879Z,99220.72
2024-05-09T11:00:35.787Z,99232.63
2024-05-09T11:03:27.530Z,99224.09
2024-05-09T11:06:15.658Z,99217.78
2024-05-09T11:09:02.267Z,99217.28
2024-05-09T11:11:48.183Z,99216.69
2024-05-09T11:14:34.593Z,99220.13
2024-05-09T11:17:20.289Z,99212.63
2024-05-09T11:20:13.596Z,99206.03
2024-05-09T11:23:06.902Z,99206.41
2024-05-09T11:25:54.086Z,99203.00
2024-05-09T11:28:44.445Z,99206.84
2024-05-09T11:31:30.497Z,99194.97
2024-05-09T11:34:16.473Z,99196.94
2024-05-09T11:37:02.547Z,99194.44
2024-05-09T11:39:48.591Z,99198.28
2024-05-09T11:42:34.419Z,99187.34
2024-05-09T11:45:19.916Z,99172.28
2024-05-09T11:48:06.907Z,99185.94
2024-05-09T11:50:54.993Z,99185.16
2024-05-09T11:53:40.913Z,99181.78
2024-05-09T11:56:26.824Z,99176.47
2024-05-09T11:59:12.795Z,99172.06
2024-05-09T12:01:58.498Z,99175.22
2024-05-09T12:04:44.504Z,99173.88
2024-05-09T12:07:31.766Z,99165.09
2024-05-09T12:10:22.275Z,99158.25
2024-05-09T12:13:12.037Z,99166.41
2024-05-09T12:15:58.683Z,99155.31
2024-05-09T12:18:45.139Z,99156.19
2024-05-09T12:21:30.991Z,99165.66
2024-05-09T12:24:18.450Z,99157.53
2024-05-09T12:27:05.013Z,99167.25
2024-05-09T12:29:50.787Z,99160.22
2024-05-09T12:32:36.590Z,99150.25
2024-05-09T12:35:22.330Z,99146.16
2024-05-09T12:38:07.898Z,99149.75
2024-05-09T12:40:53.465Z,99145.72
2024-05-09T12:43:39.179Z,99136.53
2024-05-09T12:46:25.291Z,99132.56
2024-05-09T12:49:11.216Z,99134.09
2024-05-09T12:51:57.658Z,99139.88
2024-05-09T12:54:44.262Z,99122.16
2024-05-09T12:57:30.428Z,99125.88
2024-05-09T13:00:23.770Z,99117.94
2024-05-09T13:03:14.658Z,99119.03
2024-05-09T13:06:01.430Z,99122.44
2024-05-09T13:08:47.044Z,99123.94
2024-05-09T13:11:32.879Z,99121.00
2024-05-09T13:14:18.830Z,99107.41
2024-05-09T13:17:05.217Z,99110.09
2024-05-09T13:19:50.770Z,99116.88
2024-05-09T13:22:36.231Z,99107.41
2024-05-09T13:25:22.199Z,99105.44
2024-05-09T13:28:08.147Z,99115.06
2024-05-09T13:30:54.253Z,99109.75
2024-05-09T13:33:40.127Z,99110.84
2024-05-09T13:36:26.047Z,99086.00
2024-05-09T13:39:13.164Z,99099.09
2024-05-09T13:41:59.389Z,99096.66
2024-05-09T13:44:44.833Z,99093.44
2024-05-09T13:47:31.209Z,99097.69
2024-05-09T13:50:27.767Z,99079.47
2024-05-09T13:53:19.101Z,99041.25
2024-05-09T13:56:05.230Z,99081.72
2024-05-09T13:58:51.674Z,99079.28
2024-05-09T14:01:37.388Z,99044.41
2024-05-09T14:04:23.106Z,99071.31
2024-05-09T14:07:08.939Z,99076.78
2024-05-09T14:09:54.732Z,99074.91
2024-05-09T14:12:40.573Z,99034.44
2024-05-09T14:15:28.002Z,99060.13
2024-05-09T14:18:14.628Z,99062.59
2024-05-09T14:21:01.782Z,99058.47
2024-05-09T14:23:48.231Z,99047.97
2024-05-09T14:26:33.675Z,99048.88
2024-05-09T14:29:19.842Z,99053.03
2024-05-09T14:32:06.043Z,99014.47
2024-05-09T14:34:51.408Z,99043.88
2024-05-09T14:37:39.644Z,99032.03
2024-05-09T14:40:36.354Z,99038.63
2024-05-09T14:43:29.127Z,99033.66
2024-05-09T14:46:15.044Z,99037.56
2024-05-09T14:49:01.176Z,99035.28
2024-05-09T14:51:48.381Z,99018.38
2024-05-09T14:54:34.325Z,99026.25
2024-05-09T14:57:20.695Z,99024.03
2024-05-09T15:00:09.134Z,99022.72
2024-05-09T15:03:00.117Z,99024.59
2024-05-09T15:05:47.050Z,99023.66
2024-05-09T15:08:33.202Z,99016.22
2024-05-09T15:11:19.294Z,99015.84
2024-05-09T15:14:04.891Z,99009.72
2024-05-09T15:16:50.672Z,99022.28
2024-05-09T15:19:37.234Z,99012.44
2024-05-09T15:22:23.050Z,99004.88
2024-05-09T15:25:08.878Z,99006.03
2024-05-09T15:27:54.437Z,98996.63
2024-05-09T15:30:42.932Z,98993.75
2024-05-09T15:33:31.290Z,99001.56
2024-05-09T15:36:17.371Z,98996.44
2024-05-09T15:39:02.955Z,98997.41
2024-05-09T15:41:48.408Z,99000.94
2024-05-09T15:44:35.699Z,99002.88
2024-05-09T15:47:21.992Z,98999.63
2024-05-09T15:50:12.069Z,98991.63
2024-05-09T15:53:03.151Z,98994.78
2024-05-09T15:55:49.382Z,98995.66
2024-05-09T15:58:34.916Z,98981.97
2024-05-09T16:01:21.187Z,98979.69
2024-05-09T16:04:07.414Z,98987.34
2024-05-09T16:06:53.803Z,98978.28
2024-05-09T16:09:40.140Z,98964.00
2024-05-09T16:12:26.360Z,98982.53
2024-05-09T16:15:11.960Z,98970.00
2024-05-09T16:17:59.058Z,98972.81
2024-05-09T16:20:46.459Z,98971.00
2024-05-09T16:23:34.601Z,98970.97
2024-05-09T16:26:21.191Z,98945.66
2024-05-09T16:29:06.995Z,98972.28
2024-05-09T16:31:52.488Z,98963.31
2024-05-09T16:34:38.444Z,98977.06
2024-05-09T16:37:26.522Z,98971.63
2024-05-09T16:40:22.157Z,98975.63
2024-05-09T16:43:15.802Z,98970.63
2024-05-09T16:46:01.966Z,98971.69
2024-05-09T16:48:47.873Z,98968.88
2024-05-09T16:51:33.380Z,98964.75
2024-05-09T16:54:18.927Z,98964.19
2024-05-09T16:57:05.219Z,98963.84
2024-05-09T16:59:51.672Z,98970.03
2024-05-09T17:02:37.163Z,98968.75
2024-05-09T17:05:23.317Z,98951.25
2024-05-09T17:08:09.003Z,98965.00
2024-05-09T17:10:55.289Z,98955.25
2024-05-09T17:13:41.982Z,98961.09
2024-05-09T17:16:28.715Z,98952.44
2024-05-09T17:19:14.397Z,98958.63
2024-05-09T17:22:00.540Z,98962.69
2024-05-09T17:24:46.664Z,98964.66
2024-05-09T17:27:32.540Z,98956.88
2024-05-09T17:30:28.318Z,98920.13
2024-05-09T17:33:18.229Z,98956.66
2024-05-09T17:36:04.543Z,98963.50
2024-05-09T17:38:50.535Z,98965.56
2024-05-09T17:41:35.925Z,98964.06
2024-05-09T17:44:21.486Z,98956.41
2024-05-09T17:47:07.335Z,98955.91
2024-05-09T17:49:53.264Z,98962.84
2024-05-09T17:52:39.417Z,98957.56
2024-05-09T17:55:25.362Z,98962.94
2024-05-09T17:58:12.220Z,98961.53
2024-05-09T18:00:58.423Z,98963.53
2024-05-09T18:03:44.497Z,98963.81
2024-05-09T18:06:30.285Z,98947.09
2024-05-09T18:09:15.995Z,98965.16
2024-05-09T18:12:01.613Z,98967.88
2024-05-09T18:14:47.021Z,98966.41
2024-05-09T18:17:32.945Z,98962.75
2024-05-09T18:20:31.951Z,98960.97
2024-05-09T18:23:26.334Z,98958.16
2024-05-09T18:26:12.498Z,98960.31
2024-05-09T18:28:58.430Z,98963.25
2024-05-09T18:31:44.444Z,98965.41
2024-05-09T18:34:30.069Z,98973.13
2024-05-09T18:37:16.634Z,98975.69
2024-05-09T18:40:02.345Z,98980.06
2024-05-09T18:42:49.214Z,98976.19
2024-05-09T18:45:35.151Z,98971.75
2024-05-09T18:48:21.333Z,98978.59
2024-05-09T18:51:07.281Z,98966.38
2024-05-09T18:53:53.152Z,98982.16
2024-05-09T18:56:40.606Z,98995.97
2024-05-09T18:59:26.465Z,98993.34
2024-05-09T19:02:18.814Z,98987.28
2024-05-09T19:05:05.739Z,98987.91
2024-05-09T19:07:51.839Z,98994.09
2024-05-09T19:10:39.624Z,99001.94
2024-05-09T19:13:25.784Z,99000.75
2024-05-09T19:16:11.672Z,99008.16
2024-05-09T19:18:57.647Z,99004.28
2024-05-09T19:21:43.542Z,99005.09
2024-05-09T19:24:29.485Z,99007.16
2024-05-09T19:27:15.558Z,98994.31
2024-05-09T19:30:01.758Z,99011.91
2024-05-09T19:32:50.056Z,99009.06
2024-05-09T19:35:36.135Z,99015.09
2024-05-09T19:38:21.623Z,99023.69
2024-05-09T19:41:08.394Z,99017.16
2024-05-09T19:43:53.988Z,98991.31
2024-05-09T19:46:39.475Z,99025.75
2024-05-09T19:49:25.050Z,99022.50
2024-05-09T19:52:10.917Z,99027.84
2024-05-09T19:54:57.081Z,99022.50
2024-05-09T19:57:43.463Z,99024.34
2024-05-09T20:00:34.955Z,99024.41
2024-05-09T20:03:22.222Z,99021.31
2024-05-09T20:06:08.285Z,99027.88
2024-05-09T20:08:53.724Z,99019.72
2024-05-09T20:11:39.389Z,99021.53
2024-05-09T20:14:25.271Z,99023.78
2024-05-09T20:17:10.926Z,98983.25
2024-05-09T20:19:56.814Z,99030.16
2024-05-09T20:22:42.551Z,99021.34
2024-05-09T20:25:28.551Z,99018.53
2024-05-09T20:28:15.578Z,99026.13
2024-05-09T20:31:03.236Z,99023.88
2024-05-09T20:33:49.004Z,99026.31
2024-05-09T20:36:34.953Z,99018.94
2024-05-09T20:39:25.511Z,99021.00
2024-05-09T20:42:11.496Z,99015.47
2024-05-09T20:44:57.364Z,99020.78
2024-05-09T20:47:43.362Z,99023.22
2024-05-09T20:50:36.914Z,99026.69
2024-05-09T20:53:25.838Z,99028.25
2024-05-09T20:56:11.274Z,99029.06
2024-05-09T20:59:00.057Z,99034.97
2024-05-09T21:01:48.648Z,99035.81
2024-05-09T21:04:35.411Z,99034.63
2024-05-09T21:07:20.796Z,99036.88
2024-05-09T21:10:15.209Z,99036.88
2024-05-09T21:13:06.677Z,98972.00
2024-05-09T21:15:53.215Z,99030.25
2024-05-09T21:18:39.129Z,99039.63
2024-05-09T21:21:24.835Z,99031.19
2024-05-09T21:24:10.955Z,99026.81
2024-05-09T21:26:56.700Z,99038.91
2024-05-09T21:29:42.499Z,99039.69
2024-05-09T21:32:28.225Z,99045.59
2024-05-09T21:35:14.260Z,99041.34
2024-05-09T21:38:00.432Z,99043.06
2024-05-09T21:40:45.985Z,99042.19
2024-05-09T21:43:31.808Z,99045.47
2024-05-09T21:46:18.587Z,99045.47
2024-05-09T21:49:04.327Z,99050.38
2024-05-09T21:51:50.311Z,99050.75
2024-05-09T21:54:35.993Z,99047.41
2024-05-09T21:57:21.530Z,99048.25
2024-05-09T22:00:11.143Z,99037.63
2024-05-09T22:02:57.214Z,99040.47
2024-05-09T22:05:42.849Z,99041.31
2024-05-09T22:08:28.673Z,99035.16
2024-05-09T22:11:14.587Z,99040.28
2024-05-09T22:14:00.205Z,99041.84
2024-05-09T22:16:48.326Z,99045.88
2024-05-09T22:19:34.538Z,99044.59
2024-05-09T22:22:20.375Z,99043.06
2024-05-09T22:25:06.322Z,99048.63
2024-05-09T22:27:51.836Z,99044.72
2024-05-09T22:30:39.737Z,99045.66
2024-05-09T22:33:26.312Z,99042.31
2024-05-09T22:36:12.252Z,99022.09
2024-05-09T22:38:58.424Z,99057.06
2024-05-09T22:41:44.696Z,99059.59
2024-05-09T22:44:30.061Z,99052.72
2024-05-09T22:47:15.970Z,99056.78
2024-05-09T22:50:01.642Z,99050.59
2024-05-09T22:52:47.380Z,99058.47
2024-05-09T22:55:32.612Z,99057.13
2024-05-09T22:58:18.680Z,99060.84
2024-05-09T23:01:04.878Z,99055.66
2024-05-09T23:03:50.792Z,99056.03
2024-05-09T23:06:40.692Z,99058.41
2024-05-09T23:09:26.573Z,99054.28
2024-05-09T23:12:13.239Z,99013.13
2024-05-09T23:14:59.227Z,99047.72
2024-05-09T23:17:45.474Z,99044.06
2024-05-09T23:20:37.462Z,99050.09
2024-05-09T23:23:25.081Z,99050.34
2024-05-09T23:26:10.888Z,99041.50
2024-05-09T23:28:58.625Z,99045.69
2024-05-09T23:31:43.953Z,99014.34
2024-05-09T23:34:29.896Z,99041.28
2024-05-09T23:37:15.796Z,99037.81
2024-05-09T23:40:01.432Z,99043.00
2024-05-09T23:42:47.620Z,99036.91
2024-05-09T23:45:33.603Z,99038.09
2024-05-09T23:48:20.520Z,99033.16
2024-05-09T23:51:06.195Z,99032.78
2024-05-09T23:53:55.259Z,99034.91
2024-05-09T23:56:40.928Z,99030.66
2024-05-09T23:59:26.690Z,99029.88
